sensor_id;sensor_type;location;lat;lon;timestamp;pressure;altitude;pressure_sealevel;temperature;humidity
13836;BME280;6988;52.614;13.500;2023-03-03T00:04:05;54889.97;;;-143.77;83.21
13836;BME280;6988;52.614;13.500;2023-03-03T00:08:57;54889.97;;;-143.77;83.40
13836;BME280;6988;52.614;13.500;2023-03-03T00:13:51;54902.28;;;-143.77;83.56
13836;BME280;6988;52.614;13.500;2023-03-03T00:18:46;54881.75;;;-143.77;82.01
13836;BME280;6988;52.614;13.500;2023-03-03T00:23:40;54894.06;;;-143.77;82.70
13836;BME280;6988;52.614;13.500;2023-03-03T00:28:43;54861.22;;;-143.77;82.62
13836;BME280;6988;52.614;13.500;2023-03-03T00:33:44;54887.91;;;-143.77;82.86
13836;BME280;6988;52.614;13.500;2023-03-03T00:38:38;54877.66;;;-143.77;83.05
13836;BME280;6988;52.614;13.500;2023-03-03T00:43:34;54859.19;;;-143.77;83.60
13836;BME280;6988;52.614;13.500;2023-03-03T00:48:31;54865.34;;;-143.77;83.72
13836;BME280;6988;52.614;13.500;2023-03-03T00:53:31;54881.75;;;-143.77;83.14
13836;BME280;6988;52.614;13.500;2023-03-03T00:58:25;54875.59;;;-143.77;82.98
13836;BME280;6988;52.614;13.500;2023-03-03T01:03:21;54924.84;;;-143.77;83.67
13836;BME280;6988;52.614;13.500;2023-03-03T01:08:14;54879.69;;;-143.77;83.80
13836;BME280;6988;52.614;13.500;2023-03-03T01:13:06;54820.19;;;-143.77;83.80
13836;BME280;6988;52.614;13.500;2023-03-03T01:18:00;54873.53;;;-143.77;83.24
13836;BME280;6988;52.614;13.500;2023-03-03T01:22:52;54869.44;;;-143.77;83.38
13836;BME280;6988;52.614;13.500;2023-03-03T01:27:44;54863.28;;;-143.77;83.05
13836;BME280;6988;52.614;13.500;2023-03-03T01:32:36;54861.22;;;-143.77;83.25
13836;BME280;6988;52.614;13.500;2023-03-03T01:37:30;54881.75;;;-143.77;83.22
13836;BME280;6988;52.614;13.500;2023-03-03T01:42:21;54885.84;;;-143.77;83.65
13836;BME280;6988;52.614;13.500;2023-03-03T01:47:16;54877.66;;;-143.77;84.24
13836;BME280;6988;52.614;13.500;2023-03-03T01:52:19;54871.50;;;-143.77;84.53
13836;BME280;6988;52.614;13.500;2023-03-03T01:57:22;54914.59;;;-143.77;84.45
13836;BME280;6988;52.614;13.500;2023-03-03T02:02:16;54863.28;;;-143.77;83.89
13836;BME280;6988;52.614;13.500;2023-03-03T02:07:10;54832.50;;;-143.77;83.65
13836;BME280;6988;52.614;13.500;2023-03-03T02:12:08;54906.38;;;-143.77;83.28
13836;BME280;6988;52.614;13.500;2023-03-03T02:17:03;54877.66;;;-143.77;83.91
13836;BME280;6988;52.614;13.500;2023-03-03T02:22:00;54881.75;;;-143.77;84.42
13836;BME280;6988;52.614;13.500;2023-03-03T02:26:54;54889.97;;;-143.77;83.90
13836;BME280;6988;52.614;13.500;2023-03-03T02:31:46;54877.66;;;-143.77;83.61
13836;BME280;6988;52.614;13.500;2023-03-03T02:36:39;54881.75;;;-143.77;83.40
13836;BME280;6988;52.614;13.500;2023-03-03T02:41:37;54869.44;;;-143.77;83.06
13836;BME280;6988;52.614;13.500;2023-03-03T02:46:35;54857.13;;;-143.77;84.11
13836;BME280;6988;52.614;13.500;2023-03-03T02:51:27;54873.53;;;-143.77;83.86
13836;BME280;6988;52.614;13.500;2023-03-03T02:56:19;54894.06;;;-143.77;84.72
13836;BME280;6988;52.614;13.500;2023-03-03T03:01:11;54894.06;;;-143.77;84.80
13836;BME280;6988;52.614;13.500;2023-03-03T03:06:05;54879.69;;;-143.77;84.55
13836;BME280;6988;52.614;13.500;2023-03-03T03:10:58;54873.53;;;-143.77;84.42
13836;BME280;6988;52.614;13.500;2023-03-03T03:15:51;54877.66;;;-143.77;84.44
13836;BME280;6988;52.614;13.500;2023-03-03T03:20:44;54865.34;;;-143.77;84.71
13836;BME280;6988;52.614;13.500;2023-03-03T03:25:37;54892.00;;;-143.77;84.15
13836;BME280;6988;52.614;13.500;2023-03-03T03:30:37;54863.28;;;-143.77;84.46
13836;BME280;6988;52.614;13.500;2023-03-03T03:35:31;54885.84;;;-143.77;84.27
13836;BME280;6988;52.614;13.500;2023-03-03T03:40:24;54889.97;;;-143.77;84.88
13836;BME280;6988;52.614;13.500;2023-03-03T03:45:18;54894.06;;;-143.77;84.68
13836;BME280;6988;52.614;13.500;2023-03-03T03:50:12;54902.28;;;-143.77;84.57
13836;BME280;6988;52.614;13.500;2023-03-03T03:55:05;54885.84;;;-143.77;84.70
13836;BME280;6988;52.614;13.500;2023-03-03T03:59:59;54885.84;;;-143.77;85.26
13836;BME280;6988;52.614;13.500;2023-03-03T04:04:53;54900.22;;;-143.77;84.90
13836;BME280;6988;52.614;13.500;2023-03-03T04:09:45;54869.44;;;-143.77;85.48
13836;BME280;6988;52.614;13.500;2023-03-03T04:14:37;54889.97;;;-143.77;84.99
13836;BME280;6988;52.614;13.500;2023-03-03T04:19:29;54939.22;;;-143.77;84.62
13836;BME280;6988;52.614;13.500;2023-03-03T04:24:22;54900.22;;;-143.77;84.88
13836;BME280;6988;52.614;13.500;2023-03-03T04:29:16;54885.84;;;-143.77;84.29
13836;BME280;6988;52.614;13.500;2023-03-03T04:34:08;54892.00;;;-143.77;85.22
13836;BME280;6988;52.614;13.500;2023-03-03T04:39:00;54933.06;;;-143.77;84.86
13836;BME280;6988;52.614;13.500;2023-03-03T04:43:53;54918.69;;;-143.77;84.53
13836;BME280;6988;52.614;13.500;2023-03-03T04:48:45;54928.94;;;-143.77;84.97
13836;BME280;6988;52.614;13.500;2023-03-03T04:53:39;54914.59;;;-143.77;84.47
13836;BME280;6988;52.614;13.500;2023-03-03T04:58:33;54937.16;;;-143.77;84.96
13836;BME280;6988;52.614;13.500;2023-03-03T05:03:27;54937.16;;;-143.77;85.16
13836;BME280;6988;52.614;13.500;2023-03-03T05:08:19;54906.38;;;-143.77;84.94
13836;BME280;6988;52.614;13.500;2023-03-03T05:13:11;54926.91;;;-143.77;85.40
13836;BME280;6988;52.614;13.500;2023-03-03T05:18:04;54939.22;;;-143.77;85.66
13836;BME280;6988;52.614;13.500;2023-03-03T05:22:58;54967.94;;;-143.77;85.64
13836;BME280;6988;52.614;13.500;2023-03-03T05:27:51;54910.47;;;-143.77;85.88
13836;BME280;6988;52.614;13.500;2023-03-03T05:32:44;54943.31;;;-143.77;86.41
13836;BME280;6988;52.614;13.500;2023-03-03T05:37:36;54889.97;;;-143.77;86.55
13836;BME280;6988;52.614;13.500;2023-03-03T05:42:31;54922.78;;;-143.77;86.97
13836;BME280;6988;52.614;13.500;2023-03-03T05:47:22;54916.63;;;-143.77;87.49
13836;BME280;6988;52.614;13.500;2023-03-03T05:52:14;54928.94;;;-143.77;87.21
13836;BME280;6988;52.614;13.500;2023-03-03T05:57:06;54937.16;;;-143.77;87.03
13836;BME280;6988;52.614;13.500;2023-03-03T06:01:59;54949.47;;;-143.77;87.14
13836;BME280;6988;52.614;13.500;2023-03-03T06:06:51;54914.59;;;-143.77;86.99
13836;BME280;6988;52.614;13.500;2023-03-03T06:11:43;54902.28;;;-143.77;86.70
13836;BME280;6988;52.614;13.500;2023-03-03T06:16:34;54920.75;;;-143.77;86.50
13836;BME280;6988;52.614;13.500;2023-03-03T06:21:28;54914.59;;;-143.77;86.82
13836;BME280;6988;52.614;13.500;2023-03-03T06:26:20;54931.00;;;-143.77;87.19
13836;BME280;6988;52.614;13.500;2023-03-03T06:31:12;54908.44;;;-143.77;87.03
13836;BME280;6988;52.614;13.500;2023-03-03T06:36:05;54926.91;;;-143.77;87.13
13836;BME280;6988;52.614;13.500;2023-03-03T06:40:58;54896.13;;;-143.77;86.85
13836;BME280;6988;52.614;13.500;2023-03-03T06:45:51;54918.69;;;-143.77;86.91
13836;BME280;6988;52.614;13.500;2023-03-03T06:50:43;54898.16;;;-143.77;86.23
13836;BME280;6988;52.614;13.500;2023-03-03T06:55:35;54947.41;;;-143.77;86.35
13836;BME280;6988;52.614;13.500;2023-03-03T07:00:28;54902.28;;;-143.77;86.35
13836;BME280;6988;52.614;13.500;2023-03-03T07:05:25;54922.78;;;-143.77;86.27
13836;BME280;6988;52.614;13.500;2023-03-03T07:10:24;54912.53;;;-143.77;86.65
13836;BME280;6988;52.614;13.500;2023-03-03T07:15:21;54912.53;;;-143.77;87.14
13836;BME280;6988;52.614;13.500;2023-03-03T07:20:19;54912.53;;;-143.77;86.77
13836;BME280;6988;52.614;13.500;2023-03-03T07:25:25;54881.75;;;-143.77;86.83
13836;BME280;6988;52.614;13.500;2023-03-03T07:30:25;54892.00;;;-143.77;87.16
13836;BME280;6988;52.614;13.500;2023-03-03T07:35:36;54918.69;;;-143.77;87.02
13836;BME280;6988;52.614;13.500;2023-03-03T07:40:37;54951.53;;;-143.77;87.28
13836;BME280;6988;52.614;13.500;2023-03-03T07:45:34;54920.75;;;-143.77;87.46
13836;BME280;6988;52.614;13.500;2023-03-03T07:50:26;54924.84;;;-143.77;86.94
13836;BME280;6988;52.614;13.500;2023-03-03T07:55:30;54916.63;;;-143.77;86.93
13836;BME280;6988;52.614;13.500;2023-03-03T08:06:43;54920.75;;;-143.77;86.32
13836;BME280;6988;52.614;13.500;2023-03-03T08:11:48;54922.78;;;-143.77;85.92
13836;BME280;6988;52.614;13.500;2023-03-03T08:16:41;54906.38;;;-143.77;85.51
13836;BME280;6988;52.614;13.500;2023-03-03T08:21:34;54908.44;;;-143.77;86.07
13836;BME280;6988;52.614;13.500;2023-03-03T08:26:26;54892.00;;;-143.77;86.16
13836;BME280;6988;52.614;13.500;2023-03-03T08:31:19;54912.53;;;-143.77;85.33
13836;BME280;6988;52.614;13.500;2023-03-03T08:36:12;54879.69;;;-143.77;85.52
13836;BME280;6988;52.614;13.500;2023-03-03T08:41:05;54877.66;;;-143.77;85.53
13836;BME280;6988;52.614;13.500;2023-03-03T08:46:01;54881.75;;;-143.77;85.22
13836;BME280;6988;52.614;13.500;2023-03-03T08:50:56;54857.13;;;-143.77;85.16
13836;BME280;6988;52.614;13.500;2023-03-03T08:55:49;54892.00;;;-143.77;84.91
13836;BME280;6988;52.614;13.500;2023-03-03T09:00:41;54898.16;;;-143.77;84.89
13836;BME280;6988;52.614;13.500;2023-03-03T09:05:36;54894.06;;;-143.77;84.79
13836;BME280;6988;52.614;13.500;2023-03-03T09:10:30;54848.91;;;-143.77;84.44
13836;BME280;6988;52.614;13.500;2023-03-03T09:15:25;54869.44;;;-143.77;83.96
13836;BME280;6988;52.614;13.500;2023-03-03T09:20:34;54865.34;;;-143.77;83.49
13836;BME280;6988;52.614;13.500;2023-03-03T09:25:33;54850.97;;;-143.77;83.24
13836;BME280;6988;52.614;13.500;2023-03-03T09:30:37;54861.22;;;-143.77;83.17
13836;BME280;6988;52.614;13.500;2023-03-03T09:35:36;54861.22;;;-143.77;82.46
13836;BME280;6988;52.614;13.500;2023-03-03T09:40:51;54867.38;;;-143.77;82.51
13836;BME280;6988;52.614;13.500;2023-03-03T09:45:57;54844.81;;;-143.77;81.96
13836;BME280;6988;52.614;13.500;2023-03-03T09:51:09;54853.03;;;-143.77;81.44
13836;BME280;6988;52.614;13.500;2023-03-03T09:56:12;54824.28;;;-143.77;80.96
13836;BME280;6988;52.614;13.500;2023-03-03T10:01:27;54850.97;;;-143.77;81.84
13836;BME280;6988;52.614;13.500;2023-03-03T10:06:28;54853.03;;;-143.77;80.50
13836;BME280;6988;52.614;13.500;2023-03-03T10:11:29;54820.19;;;-143.77;80.07
13836;BME280;6988;52.614;13.500;2023-03-03T10:16:48;54826.34;;;-143.77;79.12
13836;BME280;6988;52.614;13.500;2023-03-03T10:21:50;54814.03;;;-143.77;79.43
13836;BME280;6988;52.614;13.500;2023-03-03T10:27:11;54861.22;;;-143.77;78.85
13836;BME280;6988;52.614;13.500;2023-03-03T10:32:42;54811.97;;;-143.77;79.22
13836;BME280;6988;52.614;13.500;2023-03-03T10:37:56;54807.88;;;-143.77;79.10
13836;BME280;6988;52.614;13.500;2023-03-03T10:43:24;54830.44;;;-143.77;78.59
13836;BME280;6988;52.614;13.500;2023-03-03T10:48:52;54836.59;;;-143.77;78.85
13836;BME280;6988;52.614;13.500;2023-03-03T10:54:02;54857.13;;;-143.77;79.03
13836;BME280;6988;52.614;13.500;2023-03-03T10:59:14;54840.72;;;-143.77;79.05
13836;BME280;6988;52.614;13.500;2023-03-03T11:04:50;54838.66;;;-143.77;78.83
13836;BME280;6988;52.614;13.500;2023-03-03T11:10:14;54807.88;;;-143.77;78.50
13836;BME280;6988;52.614;13.500;2023-03-03T11:15:32;54807.88;;;-143.77;78.63
13836;BME280;6988;52.614;13.500;2023-03-03T11:20:35;54799.66;;;-143.77;78.45
13836;BME280;6988;52.614;13.500;2023-03-03T11:25:38;54822.25;;;-143.77;78.61
13836;BME280;6988;52.614;13.500;2023-03-03T11:30:54;54809.94;;;-143.77;78.69
13836;BME280;6988;52.614;13.500;2023-03-03T11:36:06;54803.78;;;-143.77;77.94
13836;BME280;6988;52.614;13.500;2023-03-03T11:41:04;54793.50;;;-143.77;77.74
13836;BME280;6988;52.614;13.500;2023-03-03T11:46:06;54773.00;;;-143.77;77.49
13836;BME280;6988;52.614;13.500;2023-03-03T11:51:05;54779.16;;;-143.77;77.22
13836;BME280;6988;52.614;13.500;2023-03-03T11:56:07;54795.56;;;-143.77;77.34
13836;BME280;6988;52.614;13.500;2023-03-03T12:01:18;54814.03;;;-143.77;76.69
13836;BME280;6988;52.614;13.500;2023-03-03T12:06:24;54795.56;;;-143.77;76.38
13836;BME280;6988;52.614;13.500;2023-03-03T12:11:26;54783.25;;;-143.77;76.62
13836;BME280;6988;52.614;13.500;2023-03-03T12:16:36;54791.47;;;-143.77;76.17
13836;BME280;6988;52.614;13.500;2023-03-03T12:21:58;54727.84;;;-143.77;75.64
13836;BME280;6988;52.614;13.500;2023-03-03T12:27:11;54791.47;;;-143.77;75.36
13836;BME280;6988;52.614;13.500;2023-03-03T12:32:20;54756.56;;;-143.77;76.19
13836;BME280;6988;52.614;13.500;2023-03-03T12:37:33;54758.63;;;-143.77;75.59
13836;BME280;6988;52.614;13.500;2023-03-03T12:42:51;54754.53;;;-143.77;76.14
13836;BME280;6988;52.614;13.500;2023-03-03T12:47:57;54816.09;;;-143.77;76.45
13836;BME280;6988;52.614;13.500;2023-03-03T12:53:00;54789.41;;;-143.77;76.04
13836;BME280;6988;52.614;13.500;2023-03-03T12:58:03;54760.69;;;-143.77;76.03
13836;BME280;6988;52.614;13.500;2023-03-03T13:03:12;54775.03;;;-143.77;75.79
13836;BME280;6988;52.614;13.500;2023-03-03T13:08:41;54791.47;;;-143.77;75.59
13836;BME280;6988;52.614;13.500;2023-03-03T13:13:49;54795.56;;;-143.77;75.92
13836;BME280;6988;52.614;13.500;2023-03-03T13:18:53;54754.53;;;-143.77;75.34
13836;BME280;6988;52.614;13.500;2023-03-03T13:23:53;54789.41;;;-143.77;74.93
13836;BME280;6988;52.614;13.500;2023-03-03T13:29:00;54752.47;;;-143.77;75.05
13836;BME280;6988;52.614;13.500;2023-03-03T13:33:57;54770.94;;;-143.77;75.31
13836;BME280;6988;52.614;13.500;2023-03-03T13:38:55;54770.94;;;-143.77;75.68
13836;BME280;6988;52.614;13.500;2023-03-03T13:43:54;54746.31;;;-143.77;75.44
13836;BME280;6988;52.614;13.500;2023-03-03T13:49:14;54748.38;;;-143.77;75.06
13836;BME280;6988;52.614;13.500;2023-03-03T13:54:28;54779.16;;;-143.77;75.63
13836;BME280;6988;52.614;13.500;2023-03-03T13:59:35;54777.09;;;-143.77;75.21
13836;BME280;6988;52.614;13.500;2023-03-03T14:04:47;54773.00;;;-143.77;75.62
13836;BME280;6988;52.614;13.500;2023-03-03T14:09:57;54742.22;;;-143.77;75.14
13836;BME280;6988;52.614;13.500;2023-03-03T14:15:02;54758.63;;;-143.77;75.21
13836;BME280;6988;52.614;13.500;2023-03-03T14:20:13;54764.78;;;-143.77;74.99
13836;BME280;6988;52.614;13.500;2023-03-03T14:25:09;54754.53;;;-143.77;75.21
13836;BME280;6988;52.614;13.500;2023-03-03T14:30:26;54783.25;;;-143.77;75.14
13836;BME280;6988;52.614;13.500;2023-03-03T14:35:20;54746.31;;;-143.77;75.37
13836;BME280;6988;52.614;13.500;2023-03-03T14:40:19;54734.00;;;-143.77;75.22
13836;BME280;6988;52.614;13.500;2023-03-03T14:45:32;54764.78;;;-143.77;74.68
13836;BME280;6988;52.614;13.500;2023-03-03T14:50:37;54754.53;;;-143.77;74.51
13836;BME280;6988;52.614;13.500;2023-03-03T14:55:35;54754.53;;;-143.77;74.47
13836;BME280;6988;52.614;13.500;2023-03-03T15:00:32;54758.63;;;-143.77;75.20
13836;BME280;6988;52.614;13.500;2023-03-03T15:05:26;54744.25;;;-143.77;74.80
13836;BME280;6988;52.614;13.500;2023-03-03T15:10:33;54766.84;;;-143.77;74.25
13836;BME280;6988;52.614;13.500;2023-03-03T15:15:25;54766.84;;;-143.77;73.74
13836;BME280;6988;52.614;13.500;2023-03-03T15:20:31;54742.22;;;-143.77;74.39
13836;BME280;6988;52.614;13.500;2023-03-03T15:25:32;54734.00;;;-143.77;73.99
13836;BME280;6988;52.614;13.500;2023-03-03T15:30:34;54736.06;;;-143.77;73.99
13836;BME280;6988;52.614;13.500;2023-03-03T15:35:48;54717.59;;;-143.77;74.57
13836;BME280;6988;52.614;13.500;2023-03-03T15:40:48;54777.09;;;-143.77;74.82
13836;BME280;6988;52.614;13.500;2023-03-03T15:45:49;54762.72;;;-143.77;74.53
13836;BME280;6988;52.614;13.500;2023-03-03T15:50:54;54746.31;;;-143.77;74.91
13836;BME280;6988;52.614;13.500;2023-03-03T15:56:06;54795.56;;;-143.77;74.72
13836;BME280;6988;52.614;13.500;2023-03-03T16:01:11;54797.63;;;-143.77;74.85
13836;BME280;6988;52.614;13.500;2023-03-03T16:06:15;54783.25;;;-143.77;75.61
13836;BME280;6988;52.614;13.500;2023-03-03T16:11:20;54809.94;;;-143.77;75.24
13836;BME280;6988;52.614;13.500;2023-03-03T16:16:28;54746.31;;;-143.77;74.81
13836;BME280;6988;52.614;13.500;2023-03-03T16:21:41;54779.16;;;-143.77;74.99
13836;BME280;6988;52.614;13.500;2023-03-03T16:26:49;54779.16;;;-143.77;74.93
13836;BME280;6988;52.614;13.500;2023-03-03T16:31:49;54791.47;;;-143.77;75.36
13836;BME280;6988;52.614;13.500;2023-03-03T16:36:59;54793.50;;;-143.77;75.66
13836;BME280;6988;52.614;13.500;2023-03-03T16:42:01;54766.84;;;-143.77;75.57
13836;BME280;6988;52.614;13.500;2023-03-03T16:47:06;54801.72;;;-143.77;75.57
13836;BME280;6988;52.614;13.500;2023-03-03T16:52:10;54783.25;;;-143.77;75.88
13836;BME280;6988;52.614;13.500;2023-03-03T16:57:15;54791.47;;;-143.77;76.32
13836;BME280;6988;52.614;13.500;2023-03-03T17:02:34;54783.25;;;-143.77;76.40
13836;BME280;6988;52.614;13.500;2023-03-03T17:07:41;54807.88;;;-143.77;76.94
13836;BME280;6988;52.614;13.500;2023-03-03T17:12:52;54783.25;;;-143.77;76.78
13836;BME280;6988;52.614;13.500;2023-03-03T17:17:55;54803.78;;;-143.77;77.71
13836;BME280;6988;52.614;13.500;2023-03-03T17:23:12;54799.66;;;-143.77;77.61
13836;BME280;6988;52.614;13.500;2023-03-03T17:28:30;54781.19;;;-143.77;78.02
13836;BME280;6988;52.614;13.500;2023-03-03T17:33:41;54795.56;;;-143.77;78.52
13836;BME280;6988;52.614;13.500;2023-03-03T17:38:50;54811.97;;;-143.77;78.57
13836;BME280;6988;52.614;13.500;2023-03-03T17:43:56;54805.81;;;-143.77;78.63
13836;BME280;6988;52.614;13.500;2023-03-03T17:49:13;54830.44;;;-143.77;78.79
13836;BME280;6988;52.614;13.500;2023-03-03T17:54:34;54855.06;;;-143.77;78.88
13836;BME280;6988;52.614;13.500;2023-03-03T18:00:00;54770.94;;;-143.77;78.56
13836;BME280;6988;52.614;13.500;2023-03-03T18:05:21;54807.88;;;-143.77;78.35
13836;BME280;6988;52.614;13.500;2023-03-03T18:11:02;54777.09;;;-143.77;78.18
13836;BME280;6988;52.614;13.500;2023-03-03T18:16:14;54807.88;;;-143.77;77.99
13836;BME280;6988;52.614;13.500;2023-03-03T18:21:14;54789.41;;;-143.77;78.35
13836;BME280;6988;52.614;13.500;2023-03-03T18:26:34;54787.34;;;-143.77;78.19
13836;BME280;6988;52.614;13.500;2023-03-03T18:31:31;54807.88;;;-143.77;78.24
13836;BME280;6988;52.614;13.500;2023-03-03T18:36:50;54801.72;;;-143.77;77.77
13836;BME280;6988;52.614;13.500;2023-03-03T18:47:14;54777.09;;;-143.77;77.65
13836;BME280;6988;52.614;13.500;2023-03-03T18:52:18;54801.72;;;-143.77;77.49
13836;BME280;6988;52.614;13.500;2023-03-03T18:57:17;54773.00;;;-143.77;77.70
13836;BME280;6988;52.614;13.500;2023-03-03T19:02:28;54795.56;;;-143.77;77.96
13836;BME280;6988;52.614;13.500;2023-03-03T19:07:24;54797.63;;;-143.77;77.48
13836;BME280;6988;52.614;13.500;2023-03-03T19:12:49;54762.72;;;-143.77;77.38
13836;BME280;6988;52.614;13.500;2023-03-03T19:17:48;54791.47;;;-143.77;77.25
13836;BME280;6988;52.614;13.500;2023-03-03T19:22:46;54801.72;;;-143.77;77.05
13836;BME280;6988;52.614;13.500;2023-03-03T19:27:45;54770.94;;;-143.77;77.16
13836;BME280;6988;52.614;13.500;2023-03-03T19:33:07;54773.00;;;-143.77;77.11
13836;BME280;6988;52.614;13.500;2023-03-03T19:38:16;54783.25;;;-143.77;76.97
13836;BME280;6988;52.614;13.500;2023-03-03T19:43:33;54750.41;;;-143.77;76.85
13836;BME280;6988;52.614;13.500;2023-03-03T19:48:38;54754.53;;;-143.77;76.97
13836;BME280;6988;52.614;13.500;2023-03-03T19:53:40;54779.16;;;-143.77;76.27
13836;BME280;6988;52.614;13.500;2023-03-03T19:58:48;54768.88;;;-143.77;76.48
13836;BME280;6988;52.614;13.500;2023-03-03T20:04:09;54783.25;;;-143.77;76.54
13836;BME280;6988;52.614;13.500;2023-03-03T20:09:18;54797.63;;;-143.77;75.96
13836;BME280;6988;52.614;13.500;2023-03-03T20:14:25;54783.25;;;-143.77;75.94
13836;BME280;6988;52.614;13.500;2023-03-03T20:19:41;54797.63;;;-143.77;76.04
13836;BME280;6988;52.614;13.500;2023-03-03T20:24:55;54762.72;;;-143.77;75.98
13836;BME280;6988;52.614;13.500;2023-03-03T20:30:16;54779.16;;;-143.77;76.17
13836;BME280;6988;52.614;13.500;2023-03-03T20:35:26;54783.25;;;-143.77;76.30
13836;BME280;6988;52.614;13.500;2023-03-03T20:40:33;54811.97;;;-143.77;74.07
13836;BME280;6988;52.614;13.500;2023-03-03T20:45:42;54799.66;;;-143.77;72.37
13836;BME280;6988;52.614;13.500;2023-03-03T20:50:52;54779.16;;;-143.77;72.14
13836;BME280;6988;52.614;13.500;2023-03-03T20:56:00;54779.16;;;-143.77;71.57
13836;BME280;6988;52.614;13.500;2023-03-03T21:01:02;54809.94;;;-143.77;72.03
13836;BME280;6988;52.614;13.500;2023-03-03T21:06:00;54742.22;;;-143.77;72.05
13836;BME280;6988;52.614;13.500;2023-03-03T21:10:55;54814.03;;;-143.77;71.92
13836;BME280;6988;52.614;13.500;2023-03-03T21:15:54;54777.09;;;-143.77;72.05
13836;BME280;6988;52.614;13.500;2023-03-03T21:20:46;54775.03;;;-143.77;72.24
13836;BME280;6988;52.614;13.500;2023-03-03T21:25:47;54816.09;;;-143.77;71.82
13836;BME280;6988;52.614;13.500;2023-03-03T21:31:02;54783.25;;;-143.77;71.64
13836;BME280;6988;52.614;13.500;2023-03-03T21:35:57;54795.56;;;-143.77;71.49
13836;BME280;6988;52.614;13.500;2023-03-03T21:41:00;54748.38;;;-143.77;71.73
13836;BME280;6988;52.614;13.500;2023-03-03T21:45:52;54775.03;;;-143.77;72.15
13836;BME280;6988;52.614;13.500;2023-03-03T21:50:44;54787.34;;;-143.77;71.60
13836;BME280;6988;52.614;13.500;2023-03-03T21:55:38;54762.72;;;-143.77;71.73
13836;BME280;6988;52.614;13.500;2023-03-03T22:00:31;54791.47;;;-143.77;71.53
13836;BME280;6988;52.614;13.500;2023-03-03T22:05:23;54793.50;;;-143.77;71.62
13836;BME280;6988;52.614;13.500;2023-03-03T22:10:15;54789.41;;;-143.77;71.88
13836;BME280;6988;52.614;13.500;2023-03-03T22:15:08;54789.41;;;-143.77;71.79
13836;BME280;6988;52.614;13.500;2023-03-03T22:20:01;54791.47;;;-143.77;72.23
13836;BME280;6988;52.614;13.500;2023-03-03T22:24:53;54797.63;;;-143.77;72.39
13836;BME280;6988;52.614;13.500;2023-03-03T22:29:45;54766.84;;;-143.77;72.71
13836;BME280;6988;52.614;13.500;2023-03-03T22:34:36;54811.97;;;-143.77;72.96
13836;BME280;6988;52.614;13.500;2023-03-03T22:39:30;54787.34;;;-143.77;72.53
13836;BME280;6988;52.614;13.500;2023-03-03T22:44:21;54799.66;;;-143.77;72.55
13836;BME280;6988;52.614;13.500;2023-03-03T23:05:15;54816.09;;;-143.77;74.27
13836;BME280;6988;52.614;13.500;2023-03-03T23:10:09;54832.50;;;-143.77;74.04
13836;BME280;6988;52.614;13.500;2023-03-03T23:15:01;54803.78;;;-143.77;74.05
13836;BME280;6988;52.614;13.500;2023-03-03T23:19:53;54787.34;;;-143.77;74.06
13836;BME280;6988;52.614;13.500;2023-03-03T23:24:47;54803.78;;;-143.77;74.20
13836;BME280;6988;52.614;13.500;2023-03-03T23:29:39;54820.19;;;-143.77;74.32
13836;BME280;6988;52.614;13.500;2023-03-03T23:34:31;54830.44;;;-143.77;74.92
13836;BME280;6988;52.614;13.500;2023-03-03T23:39:24;54842.75;;;-143.77;75.24
13836;BME280;6988;52.614;13.500;2023-03-03T23:44:17;54836.59;;;-143.77;75.62
13836;BME280;6988;52.614;13.500;2023-03-03T23:49:09;54918.69;;;-143.77;75.82
13836;BME280;6988;52.614;13.500;2023-03-03T23:54:01;54807.88;;;-143.77;76.57
13836;BME280;6988;52.614;13.500;2023-03-03T23:58:53;54855.06;;;-143.77;76.89
